createdAt,value
2018-04-07T00:02:09.530Z,3.20
2018-04-07T00:04:36.982Z,2.60
2018-04-07T00:07:04.442Z,4.10
2018-04-07T00:09:31.926Z,3.17
2018-04-07T00:12:00.148Z,2.97
2018-04-07T00:14:27.622Z,2.73
2018-04-07T00:16:55.089Z,3.40
2018-04-07T00:19:23.340Z,3.30
2018-04-07T00:21:50.794Z,3.10
2018-04-07T00:24:18.272Z,3.10
2018-04-07T00:26:45.729Z,2.80
2018-04-07T00:29:13.202Z,2.93
2018-04-07T00:31:40.706Z,2.50
2018-04-07T00:34:08.183Z,3.03
2018-04-07T00:36:35.672Z,2.83
2018-04-07T00:39:03.134Z,2.63
2018-04-07T00:41:31.373Z,2.60
2018-04-07T00:43:58.865Z,2.80
2018-04-07T00:46:27.085Z,2.43
2018-04-07T00:48:54.561Z,2.60
2018-04-07T00:51:22.054Z,2.60
2018-04-07T00:53:50.338Z,2.50
2018-04-07T00:56:18.578Z,2.60
2018-04-07T00:58:46.055Z,2.60
2018-04-07T01:01:13.541Z,2.87
2018-04-07T01:03:40.992Z,2.63
2018-04-07T01:06:08.438Z,2.40
2018-04-07T01:08:36.684Z,2.90
2018-04-07T01:11:04.137Z,2.70
2018-04-07T01:13:31.612Z,2.60
2018-04-07T01:15:59.079Z,2.47
2018-04-07T01:18:26.637Z,2.87
2018-04-07T01:20:54.086Z,2.50
2018-04-07T01:23:21.579Z,2.50
2018-04-07T01:25:49.166Z,2.67
2018-04-07T01:28:16.626Z,2.87
2018-04-07T01:30:44.129Z,2.60
2018-04-07T01:33:12.363Z,2.57
2018-04-07T01:35:39.869Z,2.50
2018-04-07T01:38:08.112Z,2.90
2018-04-07T01:40:35.592Z,2.50
2018-04-07T01:43:03.062Z,2.53
2018-04-07T01:45:31.439Z,2.73
2018-04-07T01:47:59.686Z,2.70
2018-04-07T01:50:27.158Z,3.03
2018-04-07T01:52:54.633Z,2.97
2018-04-07T01:55:22.134Z,2.80
2018-04-07T01:57:49.619Z,2.40
2018-04-07T02:00:17.103Z,3.23
2018-04-07T02:02:45.334Z,3.00
2018-04-07T02:05:12.813Z,2.63
2018-04-07T02:07:40.265Z,2.30
2018-04-07T02:10:08.538Z,2.73
2018-04-07T02:12:35.998Z,2.60
2018-04-07T02:15:03.471Z,2.67
2018-04-07T02:17:30.945Z,2.40
2018-04-07T02:19:58.402Z,2.90
2018-04-07T02:22:26.006Z,3.00
2018-04-07T02:24:53.477Z,2.87
2018-04-07T02:27:20.961Z,2.40
2018-04-07T02:29:49.206Z,3.20
2018-04-07T02:32:16.674Z,2.60
2018-04-07T02:34:44.173Z,2.63
2018-04-07T02:37:12.415Z,2.60
2018-04-07T02:39:39.950Z,2.93
2018-04-07T02:42:08.169Z,3.00
2018-04-07T02:44:35.642Z,2.80
2018-04-07T02:47:03.862Z,3.00
2018-04-07T02:49:31.339Z,2.67
2018-04-07T02:51:58.799Z,2.60
2018-04-07T02:54:26.275Z,2.80
2018-04-07T02:56:54.893Z,2.77
2018-04-07T02:59:22.398Z,2.77
2018-04-07T03:01:49.874Z,3.00
2018-04-07T03:04:18.208Z,2.57
2018-04-07T03:06:45.692Z,2.77
2018-04-07T03:09:13.272Z,2.90
2018-04-07T03:11:41.502Z,2.83
2018-04-07T03:14:08.981Z,3.03
2018-04-07T03:16:36.442Z,2.73
2018-04-07T03:19:03.920Z,2.87
2018-04-07T03:21:31.390Z,2.77
2018-04-07T03:23:59.636Z,3.10
2018-04-07T03:26:27.142Z,2.53
2018-04-07T03:28:54.585Z,2.70
2018-04-07T03:31:22.068Z,2.90
2018-04-07T03:33:49.522Z,2.70
2018-04-07T03:36:17.012Z,2.67
2018-04-07T03:38:44.493Z,3.10
2018-04-07T03:41:12.733Z,2.70
2018-04-07T03:43:40.274Z,3.03
2018-04-07T03:46:07.730Z,2.83
2018-04-07T03:48:35.205Z,3.13
2018-04-07T03:51:02.680Z,2.80
2018-04-07T03:53:30.162Z,2.57
2018-04-07T03:55:58.370Z,3.23
2018-04-07T03:58:26.132Z,3.13
2018-04-07T04:00:53.573Z,3.30
2018-04-07T04:03:21.135Z,3.20
2018-04-07T04:05:48.658Z,3.17
2018-04-07T04:08:16.123Z,2.97
2018-04-07T04:10:43.621Z,3.17
2018-04-07T04:13:11.074Z,3.33
2018-04-07T04:15:38.646Z,3.30
2018-04-07T04:18:06.234Z,3.10
2018-04-07T04:20:33.701Z,3.10
2018-04-07T04:23:01.200Z,3.30
2018-04-07T04:25:28.677Z,3.73
2018-04-07T04:27:56.137Z,3.13
2018-04-07T04:30:23.622Z,3.27
2018-04-07T04:32:51.077Z,3.40
2018-04-07T04:35:18.563Z,3.33
2018-04-07T04:37:46.781Z,3.73
2018-04-07T04:40:14.261Z,3.20
2018-04-07T04:42:41.842Z,3.10
2018-04-07T04:45:10.081Z,3.10
2018-04-07T04:47:37.545Z,3.10
2018-04-07T04:50:05.011Z,3.03
2018-04-07T04:52:32.527Z,3.03
2018-04-07T04:54:59.993Z,3.20
2018-04-07T04:57:27.485Z,3.27
2018-04-07T04:59:54.962Z,3.07
2018-04-07T05:02:22.553Z,3.10
2018-04-07T05:04:50.020Z,2.40
2018-04-07T05:07:17.516Z,2.97
2018-04-07T05:09:44.962Z,2.93
2018-04-07T05:12:12.442Z,3.30
2018-04-07T05:14:39.948Z,2.93
2018-04-07T05:17:07.473Z,3.07
2018-04-07T05:19:34.917Z,2.90
2018-04-07T05:22:02.417Z,3.30
2018-04-07T05:24:29.894Z,2.93
2018-04-07T05:26:57.370Z,2.63
2018-04-07T05:29:24.824Z,2.90
2018-04-07T05:31:52.326Z,3.40
2018-04-07T05:34:20.629Z,3.67
2018-04-07T05:36:48.112Z,3.53
2018-04-07T05:39:16.338Z,3.20
2018-04-07T05:41:43.953Z,2.87
2018-04-07T05:44:11.428Z,3.83
2018-04-07T05:46:38.922Z,3.17
2018-04-07T05:49:06.362Z,3.10
2018-04-07T05:51:33.831Z,3.37
2018-04-07T05:54:02.075Z,3.17
2018-04-07T05:56:29.551Z,3.30
2018-04-07T05:58:57.766Z,3.33
2018-04-07T06:01:25.226Z,2.90
2018-04-07T06:03:52.696Z,3.00
2018-04-07T06:06:20.150Z,3.67
2018-04-07T06:08:47.638Z,3.30
2018-04-07T06:11:15.086Z,3.33
2018-04-07T06:13:42.526Z,3.37
2018-04-07T06:16:10.009Z,3.50
2018-04-07T06:18:37.441Z,3.27
2018-04-07T06:21:04.925Z,3.50
2018-04-07T06:23:32.432Z,3.53
2018-04-07T06:25:59.912Z,3.70
2018-04-07T06:28:27.406Z,3.27
2018-04-07T06:30:55.624Z,3.37
2018-04-07T06:33:23.102Z,3.90
2018-04-07T06:35:50.549Z,3.10
2018-04-07T06:38:18.027Z,4.10
2018-04-07T06:40:45.512Z,3.00
2018-04-07T06:43:12.966Z,3.40
2018-04-07T06:45:40.443Z,3.40
2018-04-07T06:48:08.685Z,4.53
2018-04-07T06:50:36.935Z,3.97
2018-04-07T06:53:05.158Z,3.60
2018-04-07T06:55:32.614Z,3.40
2018-04-07T06:58:00.849Z,3.30
2018-04-07T07:00:28.310Z,3.83
2018-04-07T07:02:55.785Z,3.63
2018-04-07T07:05:23.302Z,3.60
2018-04-07T07:07:50.774Z,3.50
2018-04-07T07:10:18.247Z,3.00
2018-04-07T07:12:45.717Z,3.97
2018-04-07T07:15:13.169Z,4.00
2018-04-07T07:17:40.785Z,3.33
2018-04-07T07:20:08.245Z,3.30
2018-04-07T07:22:35.722Z,3.63
2018-04-07T07:25:03.173Z,3.53
2018-04-07T07:27:30.663Z,3.70
2018-04-07T07:29:58.118Z,3.93
2018-04-07T07:32:25.605Z,3.53
2018-04-07T07:34:53.082Z,3.97
2018-04-07T07:37:20.550Z,3.80
2018-04-07T07:39:48.050Z,4.00
2018-04-07T07:42:15.530Z,4.27
2018-04-07T07:44:42.990Z,4.40
2018-04-07T07:47:11.230Z,4.30
2018-04-07T07:49:38.690Z,4.30
2018-04-07T07:52:06.174Z,4.13
2018-04-07T07:54:34.412Z,3.90
2018-04-07T07:57:01.893Z,4.67
2018-04-07T07:59:29.341Z,4.40
2018-04-07T08:01:56.822Z,4.90
2018-04-07T08:04:24.310Z,4.27
2018-04-07T08:06:51.789Z,5.03
2018-04-07T08:09:19.258Z,4.60
2018-04-07T08:11:46.767Z,4.20
2018-04-07T08:14:14.228Z,4.90
2018-04-07T08:16:41.857Z,4.13
2018-04-07T08:19:10.079Z,4.47
2018-04-07T08:21:37.562Z,4.60
2018-04-07T08:24:05.045Z,5.17
2018-04-07T08:26:32.534Z,5.00
2018-04-07T08:29:00.010Z,5.20
2018-04-07T08:31:27.490Z,5.20
2018-04-07T08:33:54.998Z,5.17
2018-04-07T08:36:23.221Z,5.27
2018-04-07T08:38:50.695Z,4.80
2018-04-07T08:41:18.166Z,4.87
2018-04-07T08:43:46.420Z,5.10
2018-04-07T08:46:13.930Z,5.37
2018-04-07T08:48:41.430Z,5.23
2018-04-07T08:51:08.942Z,5.30
2018-04-07T08:53:36.402Z,6.17
2018-04-07T08:56:03.865Z,5.23
2018-04-07T08:58:31.338Z,7.07
2018-04-07T09:00:58.801Z,5.67
2018-04-07T09:03:26.268Z,6.60
2018-04-07T09:05:53.786Z,5.50
2018-04-07T09:08:21.259Z,6.17
2018-04-07T09:10:48.714Z,5.30
2018-04-07T09:13:16.203Z,5.00
2018-04-07T09:15:43.653Z,5.93
2018-04-07T09:18:11.926Z,5.57
2018-04-07T09:20:39.402Z,5.00
2018-04-07T09:23:06.888Z,5.67
2018-04-07T09:25:35.146Z,6.60
2018-04-07T09:28:02.598Z,5.23
2018-04-07T09:30:30.095Z,5.93
2018-04-07T09:32:58.338Z,5.53
2018-04-07T09:35:25.785Z,5.97
2018-04-07T09:37:53.270Z,9.77
2018-04-07T09:40:21.494Z,5.27
2018-04-07T09:42:48.958Z,5.50
2018-04-07T09:45:16.434Z,5.83
2018-04-07T09:47:43.906Z,5.60
2018-04-07T09:50:12.165Z,5.33
2018-04-07T09:52:39.625Z,5.80
2018-04-07T09:55:07.105Z,5.20
2018-04-07T09:57:34.553Z,6.73
2018-04-07T10:00:02.011Z,5.90
2018-04-07T10:02:35.186Z,5.77
2018-04-07T10:05:02.645Z,6.27
2018-04-07T10:07:30.125Z,5.60
2018-04-07T10:09:58.340Z,6.17
2018-04-07T10:12:25.838Z,6.13
2018-04-07T10:14:53.293Z,8.10
2018-04-07T10:17:20.750Z,5.73
2018-04-07T10:19:48.230Z,5.57
2018-04-07T10:22:15.682Z,5.43
2018-04-07T10:24:43.891Z,5.57
2018-04-07T10:27:11.370Z,5.90
2018-04-07T10:29:38.840Z,5.97
2018-04-07T10:32:06.314Z,5.53
2018-04-07T10:34:35.310Z,7.93
2018-04-07T10:37:02.781Z,7.07
2018-04-07T10:39:31.121Z,6.43
2018-04-07T10:41:58.703Z,7.20
2018-04-07T10:44:26.349Z,6.03
2018-04-07T10:46:53.839Z,6.07
2018-04-07T10:49:22.089Z,7.40
2018-04-07T10:51:49.657Z,21.47
2018-04-07T10:54:17.107Z,6.30
2018-04-07T10:56:44.590Z,6.33
2018-04-07T10:59:12.083Z,9.13
2018-04-07T11:01:39.686Z,6.23
2018-04-07T11:04:07.173Z,6.30
2018-04-07T11:06:34.625Z,5.90
2018-04-07T11:09:02.881Z,6.50
2018-04-07T11:11:30.346Z,6.57
2018-04-07T11:13:57.799Z,6.13
2018-04-07T11:16:25.281Z,6.77
2018-04-07T11:18:52.730Z,7.47
2018-04-07T11:21:20.990Z,6.70
2018-04-07T11:23:48.448Z,7.03
2018-04-07T11:26:15.950Z,7.00
2018-04-07T11:28:43.428Z,7.30
2018-04-07T11:31:10.971Z,7.03
2018-04-07T11:33:38.482Z,6.90
2018-04-07T11:36:06.772Z,6.60
2018-04-07T11:38:34.237Z,7.40
2018-04-07T11:41:02.493Z,6.90
2018-04-07T11:43:29.974Z,7.13
2018-04-07T11:45:57.469Z,7.70
2018-04-07T11:48:24.935Z,7.27
2018-04-07T11:50:52.418Z,7.83
2018-04-07T11:53:19.957Z,7.57
2018-04-07T11:55:48.206Z,7.70
2018-04-07T11:58:15.698Z,8.07
2018-04-07T12:00:43.166Z,6.70
2018-04-07T12:03:10.645Z,7.43
2018-04-07T12:05:38.875Z,7.53
2018-04-07T12:08:06.505Z,7.30
2018-04-07T12:10:34.021Z,8.07
2018-04-07T12:13:01.489Z,8.17
2018-04-07T12:15:28.993Z,7.50
2018-04-07T12:17:56.503Z,8.23
2018-04-07T12:20:24.824Z,8.07
2018-04-07T12:22:52.332Z,8.20
2018-04-07T12:25:19.821Z,7.67
2018-04-07T12:27:47.276Z,8.33
2018-04-07T12:30:14.806Z,7.80
2018-04-07T12:32:42.334Z,7.63
2018-04-07T12:35:09.802Z,7.90
2018-04-07T12:37:37.306Z,8.70
2018-04-07T12:40:04.798Z,8.27
2018-04-07T12:42:33.031Z,8.00
2018-04-07T12:45:00.529Z,8.57
2018-04-07T12:47:28.033Z,9.43
2018-04-07T12:49:55.543Z,8.97
2018-04-07T12:52:23.045Z,8.37
2018-04-07T12:54:52.010Z,8.33
2018-04-07T12:57:19.458Z,7.73
2018-04-07T12:59:46.986Z,8.07
2018-04-07T13:02:15.242Z,7.43
2018-04-07T13:04:42.718Z,8.10
2018-04-07T13:07:10.966Z,8.30
2018-04-07T13:09:39.250Z,8.30
2018-04-07T13:12:06.705Z,8.50
2018-04-07T13:14:34.188Z,8.33
2018-04-07T13:17:01.638Z,7.60
2018-04-07T13:19:29.909Z,7.70
2018-04-07T13:21:57.377Z,7.47
2018-04-07T13:24:25.606Z,7.23
2018-04-07T13:26:53.101Z,6.97
2018-04-07T13:29:21.330Z,8.30
2018-04-07T13:31:48.924Z,7.37
2018-04-07T13:34:16.402Z,7.47
2018-04-07T13:36:43.875Z,7.70
2018-04-07T13:39:11.362Z,7.83
2018-04-07T13:41:38.831Z,7.83
2018-04-07T13:44:06.342Z,7.37
2018-04-07T13:46:33.793Z,6.93
2018-04-07T13:49:01.291Z,7.23
2018-04-07T13:51:28.754Z,7.47
2018-04-07T13:53:56.203Z,7.03
2018-04-07T13:56:23.678Z,7.30
2018-04-07T13:58:51.168Z,7.27
2018-04-07T14:01:18.647Z,7.00
2018-04-07T14:03:46.106Z,7.60
2018-04-07T14:06:13.590Z,6.90
2018-04-07T14:08:41.136Z,7.20
2018-04-07T14:11:08.593Z,8.23
2018-04-07T14:13:36.037Z,8.10
2018-04-07T14:16:03.534Z,7.57
2018-04-07T14:18:30.993Z,7.77
2018-04-07T14:20:58.471Z,7.53
2018-04-07T14:23:25.945Z,7.00
2018-04-07T14:25:53.432Z,7.20
2018-04-07T14:28:20.898Z,6.53
2018-04-07T14:30:48.390Z,7.60
2018-04-07T14:33:15.905Z,6.80
2018-04-07T14:35:43.417Z,7.23
2018-04-07T14:38:10.875Z,7.17
2018-04-07T14:40:38.365Z,7.93
2018-04-07T14:43:05.909Z,7.40
2018-04-07T14:45:33.406Z,7.70
2018-04-07T14:48:01.016Z,6.70
2018-04-07T14:50:29.246Z,7.30
2018-04-07T14:52:56.735Z,7.73
2018-04-07T14:55:24.994Z,6.67
2018-04-07T14:57:52.453Z,7.67
2018-04-07T15:00:19.958Z,7.70
2018-04-07T15:02:47.561Z,7.60
2018-04-07T15:05:15.035Z,7.40
2018-04-07T15:07:42.537Z,7.00
2018-04-07T15:10:09.996Z,7.93
2018-04-07T15:12:37.547Z,7.90
2018-04-07T15:15:04.974Z,7.93
2018-04-07T15:17:33.251Z,7.50
2018-04-07T15:20:00.744Z,8.00
2018-04-07T15:22:28.266Z,7.30
2018-04-07T15:24:55.736Z,7.70
2018-04-07T15:27:24.082Z,7.23
2018-04-07T15:29:51.654Z,7.70
2018-04-07T15:32:19.117Z,8.07
2018-04-07T15:34:46.596Z,7.07
2018-04-07T15:37:14.066Z,7.77
2018-04-07T15:39:41.584Z,7.37
2018-04-07T15:42:09.046Z,7.83
2018-04-07T15:44:36.537Z,7.70
2018-04-07T15:47:04.841Z,8.10
2018-04-07T15:49:32.304Z,8.00
2018-04-07T15:51:59.795Z,8.03
2018-04-07T15:54:27.253Z,8.07
2018-04-07T15:56:55.006Z,8.30
2018-04-07T15:59:22.462Z,7.87
2018-04-07T16:01:49.950Z,7.90
2018-04-07T16:04:17.434Z,8.43
2018-04-07T16:06:44.906Z,8.20
2018-04-07T16:09:12.392Z,8.97
2018-04-07T16:11:39.866Z,7.90
2018-04-07T16:14:08.654Z,8.40
2018-04-07T16:16:36.106Z,8.37
2018-04-07T16:19:03.607Z,8.43
2018-04-07T16:21:31.069Z,8.37
2018-04-07T16:23:58.586Z,9.40
2018-04-07T16:26:27.560Z,8.67
2018-04-07T16:28:55.142Z,9.37
2018-04-07T16:31:22.598Z,8.40
2018-04-07T16:33:50.077Z,9.43
2018-04-07T16:36:18.418Z,9.00
2018-04-07T16:38:45.902Z,9.27
2018-04-07T16:41:14.150Z,9.17
2018-04-07T16:43:41.630Z,9.40
2018-04-07T16:46:09.277Z,8.70
2018-04-07T16:48:36.751Z,8.83
2018-04-07T16:51:04.983Z,9.50
2018-04-07T16:53:32.438Z,9.43
2018-04-07T16:55:59.934Z,8.73
2018-04-07T16:58:27.429Z,9.23
2018-04-07T17:00:54.907Z,8.23
2018-04-07T17:03:22.701Z,8.40
2018-04-07T17:05:50.386Z,7.73
2018-04-07T17:08:18.030Z,8.30
2018-04-07T17:10:45.527Z,8.23
2018-04-07T17:13:13.779Z,8.83
2018-04-07T17:15:42.006Z,9.03
2018-04-07T17:18:09.492Z,9.20
2018-04-07T17:20:36.977Z,8.90
2018-04-07T17:23:05.306Z,8.70
2018-04-07T17:25:32.794Z,8.70
2018-04-07T17:28:00.250Z,9.07
2018-04-07T17:30:27.749Z,8.70
2018-04-07T17:32:55.208Z,9.00
2018-04-07T17:35:22.698Z,8.70
2018-04-07T17:37:50.154Z,8.80
2018-04-07T17:40:17.609Z,7.70
2018-04-07T17:42:45.089Z,8.43
2018-04-07T17:45:12.558Z,8.97
2018-04-07T17:47:40.824Z,9.13
2018-04-07T17:50:09.076Z,7.97
2018-04-07T17:52:36.537Z,8.67
2018-04-07T17:55:04.010Z,8.97
2018-04-07T17:57:31.482Z,8.57
2018-04-07T17:59:59.746Z,8.80
2018-04-07T18:02:27.205Z,8.67
2018-04-07T18:04:54.661Z,8.93
2018-04-07T18:07:22.141Z,11.50
2018-04-07T18:09:50.361Z,14.47
2018-04-07T18:12:17.853Z,22.90
2018-04-07T18:14:45.333Z,13.90
2018-04-07T18:17:13.553Z,9.27
2018-04-07T18:19:41.050Z,10.80
2018-04-07T18:22:08.518Z,10.40
2018-04-07T18:24:36.016Z,9.43
2018-04-07T18:27:03.466Z,8.53
2018-04-07T18:29:30.957Z,9.27
2018-04-07T18:31:58.434Z,9.73
2018-04-07T18:34:25.947Z,8.73
2018-04-07T18:36:53.397Z,9.80
2018-04-07T18:39:20.871Z,9.70
2018-04-07T18:41:49.150Z,9.00
2018-04-07T18:44:16.609Z,9.53
2018-04-07T18:46:44.070Z,11.37
2018-04-07T18:49:12.322Z,10.17
2018-04-07T18:51:39.882Z,11.10
2018-04-07T18:54:07.357Z,9.50
2018-04-07T18:56:34.874Z,9.50
2018-04-07T18:59:02.372Z,8.97
2018-04-07T19:01:29.865Z,9.40
2018-04-07T19:03:57.428Z,9.37
2018-04-07T19:06:24.906Z,10.47
2018-04-07T19:08:52.385Z,10.13
2018-04-07T19:11:19.850Z,10.47
2018-04-07T19:13:47.330Z,10.17
2018-04-07T19:16:14.777Z,9.90
2018-04-07T19:18:42.286Z,10.23
2018-04-07T19:21:10.493Z,10.07
2018-04-07T19:23:37.968Z,10.53
2018-04-07T19:26:05.447Z,10.23
2018-04-07T19:28:32.938Z,10.20
2018-04-07T19:31:00.416Z,10.10
2018-04-07T19:33:27.896Z,10.50
2018-04-07T19:35:55.360Z,11.30
2018-04-07T19:38:22.854Z,11.20
2018-04-07T19:40:51.065Z,10.50
2018-04-07T19:43:18.558Z,11.67
2018-04-07T19:45:46.014Z,11.83
2018-04-07T19:48:13.641Z,10.70
2018-04-07T19:50:41.420Z,11.20
2018-04-07T19:53:08.894Z,11.80
2018-04-07T19:55:36.362Z,11.77
2018-04-07T19:58:03.876Z,15.90
2018-04-07T20:00:31.358Z,13.30
2018-04-07T20:02:59.709Z,12.73
2018-04-07T20:05:27.273Z,12.33
2018-04-07T20:07:54.748Z,11.70
2018-04-07T20:10:22.263Z,12.50
2018-04-07T20:12:50.520Z,12.53
2018-04-07T20:15:17.973Z,11.63
2018-04-07T20:17:45.461Z,11.83
2018-04-07T20:20:13.035Z,12.40
2018-04-07T20:22:40.517Z,11.83
2018-04-07T20:25:08.009Z,11.87
2018-04-07T20:27:35.490Z,11.60
2018-04-07T20:30:03.763Z,12.10
2018-04-07T20:32:31.230Z,11.57
2018-04-07T20:34:58.699Z,12.23
2018-04-07T20:37:26.189Z,12.23
2018-04-07T20:39:53.654Z,13.53
2018-04-07T20:42:27.332Z,13.80
2018-04-07T20:44:54.802Z,13.83
2018-04-07T20:47:23.184Z,14.40
2018-04-07T20:49:50.662Z,14.10
2018-04-07T20:52:18.141Z,14.33
2018-04-07T20:54:45.609Z,15.10
2018-04-07T20:57:13.108Z,14.43
2018-04-07T20:59:41.340Z,16.40
2018-04-07T21:02:09.593Z,14.47
2018-04-07T21:04:37.065Z,15.60
2018-04-07T21:07:05.306Z,16.13
2018-04-07T21:09:32.783Z,15.93
2018-04-07T21:12:00.324Z,16.20
2018-04-07T21:14:27.802Z,16.30
2018-04-07T21:16:55.453Z,16.40
2018-04-07T21:19:22.906Z,15.17
2018-04-07T21:21:50.444Z,14.50
2018-04-07T21:24:17.935Z,15.43
2018-04-07T21:26:45.442Z,13.80
2018-04-07T21:29:12.929Z,14.20
2018-04-07T21:31:40.390Z,14.47
2018-04-07T21:34:07.885Z,14.37
2018-04-07T21:36:36.114Z,13.60
2018-04-07T21:39:04.338Z,13.70
2018-04-07T21:41:31.829Z,13.73
2018-04-07T21:43:59.311Z,15.40
2018-04-07T21:46:26.782Z,13.13
2018-04-07T21:48:54.237Z,14.17
2018-04-07T21:51:21.725Z,15.10
2018-04-07T21:53:49.186Z,15.20
2018-04-07T21:56:16.670Z,15.23
2018-04-07T21:58:44.923Z,14.73
2018-04-07T22:01:12.390Z,15.13
2018-04-07T22:03:39.889Z,14.50
2018-04-07T22:06:07.373Z,14.00
2018-04-07T22:08:34.850Z,14.53
2018-04-07T22:11:03.076Z,14.23
2018-04-07T22:13:30.561Z,15.30
2018-04-07T22:15:58.039Z,13.63
2018-04-07T22:18:26.310Z,13.27
2018-04-07T22:20:54.542Z,13.03
2018-04-07T22:23:22.013Z,13.43
2018-04-07T22:25:49.545Z,13.90
2018-04-07T22:28:17.031Z,14.13
2018-04-07T22:30:44.487Z,14.70
2018-04-07T22:33:11.965Z,14.00
2018-04-07T22:35:39.457Z,13.40
2018-04-07T22:38:06.946Z,14.00
2018-04-07T22:40:35.181Z,13.80
2018-04-07T22:43:02.667Z,14.37
2018-04-07T22:45:30.162Z,14.47
2018-04-07T22:47:57.613Z,14.20
2018-04-07T22:50:25.106Z,15.13
2018-04-07T22:52:53.350Z,14.43
2018-04-07T22:55:20.832Z,15.83
2018-04-07T22:57:49.078Z,16.73
2018-04-07T23:00:26.728Z,17.13
2018-04-07T23:02:54.222Z,17.37
2018-04-07T23:05:21.690Z,17.03
2018-04-07T23:07:49.167Z,15.90
2018-04-07T23:10:17.386Z,17.03
2018-04-07T23:12:44.843Z,17.20
2018-04-07T23:15:12.326Z,16.83
2018-04-07T23:17:40.559Z,16.60
2018-04-07T23:20:08.781Z,16.13
2018-04-07T23:22:36.286Z,16.00
2018-04-07T23:25:03.772Z,16.80
2018-04-07T23:27:31.217Z,14.90
2018-04-07T23:29:58.706Z,15.77
2018-04-07T23:32:26.154Z,14.87
2018-04-07T23:34:53.635Z,14.50
2018-04-07T23:37:21.124Z,14.00
2018-04-07T23:39:49.346Z,13.17
2018-04-07T23:42:16.819Z,14.33
2018-04-07T23:44:44.322Z,13.57
2018-04-07T23:47:11.793Z,13.83
2018-04-07T23:49:39.250Z,13.73
2018-04-07T23:52:06.787Z,14.83
2018-04-07T23:54:34.202Z,13.77
2018-04-07T23:57:01.657Z,13.07
2018-04-07T23:59:29.126Z,14.07
